createdAt,value
2024-03-16T00:00:46.116Z,1.92
2024-03-16T00:03:14.086Z,1.92
2024-03-16T00:05:42.108Z,2.13
2024-03-16T00:08:10.085Z,1.70
2024-03-16T00:10:38.080Z,1.88
2024-03-16T00:13:08.010Z,2.22
2024-03-16T00:15:36.092Z,1.83
2024-03-16T00:18:04.301Z,1.77
2024-03-16T00:20:32.896Z,1.75
2024-03-16T00:23:00.957Z,1.80
2024-03-16T00:25:29.008Z,2.00
2024-03-16T00:27:57.067Z,1.95
2024-03-16T00:30:25.315Z,2.20
2024-03-16T00:32:55.630Z,1.92
2024-03-16T00:35:23.846Z,2.08
2024-03-16T00:37:51.878Z,1.98
2024-03-16T00:40:20.876Z,1.75
2024-03-16T00:42:49.265Z,2.10
2024-03-16T00:45:17.314Z,2.22
2024-03-16T00:47:45.366Z,2.10
2024-03-16T00:50:15.590Z,2.10
2024-03-16T00:52:43.986Z,2.20
2024-03-16T00:55:12.283Z,2.53
2024-03-16T00:57:40.533Z,2.33
2024-03-16T01:00:11.140Z,2.22
2024-03-16T01:02:40.466Z,2.60
2024-03-16T01:05:09.139Z,2.40
2024-03-16T01:07:37.178Z,2.08
2024-03-16T01:10:05.482Z,2.60
2024-03-16T01:12:34.961Z,2.90
2024-03-16T01:15:03.171Z,3.25
2024-03-16T01:17:31.178Z,2.88
2024-03-16T01:19:59.197Z,2.45
2024-03-16T01:22:27.223Z,2.03
2024-03-16T01:24:55.258Z,2.28
2024-03-16T01:27:23.242Z,3.28
2024-03-16T01:29:51.278Z,2.78
2024-03-16T01:32:19.337Z,2.83
2024-03-16T01:34:47.533Z,3.30
2024-03-16T01:37:15.576Z,2.83
2024-03-16T01:39:43.675Z,2.00
2024-03-16T01:42:11.690Z,2.70
2024-03-16T01:44:39.889Z,2.58
2024-03-16T01:47:08.947Z,2.75
2024-03-16T01:49:36.958Z,2.38
2024-03-16T01:52:05.152Z,3.20
2024-03-16T01:54:33.212Z,3.10
2024-03-16T01:57:01.170Z,3.70
2024-03-16T01:59:29.134Z,3.15
2024-03-16T02:01:57.127Z,2.97
2024-03-16T02:04:25.175Z,2.30
2024-03-16T02:06:53.624Z,2.40
2024-03-16T02:09:22.444Z,3.17
2024-03-16T02:11:50.945Z,3.20
2024-03-16T02:14:19.064Z,2.85
2024-03-16T02:16:47.911Z,2.90
2024-03-16T02:19:15.857Z,2.70
2024-03-16T02:21:43.839Z,4.00
2024-03-16T02:24:11.835Z,3.75
2024-03-16T02:26:39.935Z,3.13
2024-03-16T02:29:08.700Z,3.17
2024-03-16T02:31:37.512Z,4.13
2024-03-16T02:34:06.819Z,3.47
2024-03-16T02:36:34.902Z,3.33
2024-03-16T02:39:02.967Z,2.58
2024-03-16T02:41:30.923Z,2.75
2024-03-16T02:43:58.860Z,2.40
2024-03-16T02:46:26.910Z,5.00
2024-03-16T02:48:54.915Z,3.08
2024-03-16T02:51:23.279Z,3.55
2024-03-16T02:53:51.265Z,2.60
2024-03-16T02:56:20.148Z,3.20
2024-03-16T02:58:48.133Z,2.90
2024-03-16T03:01:16.281Z,3.05
2024-03-16T03:03:44.695Z,3.95
2024-03-16T03:06:13.749Z,2.78
2024-03-16T03:08:41.729Z,3.72
2024-03-16T03:11:09.935Z,3.33
2024-03-16T03:13:37.982Z,2.97
2024-03-16T03:16:06.149Z,3.60
2024-03-16T03:18:34.280Z,3.72
2024-03-16T03:21:02.269Z,3.15
2024-03-16T03:23:30.410Z,3.17
2024-03-16T03:25:58.386Z,3.40
2024-03-16T03:28:26.385Z,2.85
2024-03-16T03:30:54.804Z,3.20
2024-03-16T03:33:22.856Z,3.38
2024-03-16T03:35:50.919Z,3.17
2024-03-16T03:38:18.955Z,2.33
2024-03-16T03:40:47.011Z,2.90
2024-03-16T03:43:20.660Z,2.70
2024-03-16T03:45:54.661Z,2.75
2024-03-16T03:48:42.118Z,2.70
2024-03-16T03:51:10.161Z,2.03
2024-03-16T03:53:38.110Z,2.28
2024-03-16T03:56:06.168Z,2.50
2024-03-16T03:58:34.155Z,2.28
2024-03-16T04:01:02.336Z,2.78
2024-03-16T04:03:30.449Z,2.38
2024-03-16T04:05:59.710Z,1.90
2024-03-16T04:08:27.683Z,2.38
2024-03-16T04:10:55.715Z,1.90
2024-03-16T04:13:23.732Z,2.58
2024-03-16T04:15:51.692Z,1.70
2024-03-16T04:18:19.711Z,2.22
2024-03-16T04:20:47.950Z,1.52
2024-03-16T04:23:15.921Z,1.80
2024-03-16T04:25:44.195Z,1.77
2024-03-16T04:28:13.778Z,1.98
2024-03-16T04:30:41.857Z,1.90
2024-03-16T04:33:09.955Z,1.50
2024-03-16T04:35:38.048Z,1.60
2024-03-16T04:38:06.257Z,1.48
2024-03-16T04:40:34.248Z,1.50
2024-03-16T04:43:02.254Z,1.60
2024-03-16T04:45:30.326Z,1.60
2024-03-16T04:47:58.333Z,1.65
2024-03-16T04:50:26.702Z,1.65
2024-03-16T04:52:54.666Z,2.10
2024-03-16T04:55:22.754Z,1.65
2024-03-16T04:57:50.799Z,1.60
2024-03-16T05:00:18.868Z,1.75
2024-03-16T05:02:46.857Z,1.45
2024-03-16T05:05:15.891Z,1.23
2024-03-16T05:07:43.839Z,1.52
2024-03-16T05:10:12.695Z,1.42
2024-03-16T05:12:40.844Z,1.30
2024-03-16T05:15:09.825Z,1.10
2024-03-16T05:17:40.287Z,1.27
2024-03-16T05:20:10.133Z,1.40
2024-03-16T05:22:38.138Z,1.65
2024-03-16T05:25:07.046Z,0.95
2024-03-16T05:27:36.458Z,1.20
2024-03-16T05:30:08.249Z,1.42
2024-03-16T05:32:36.773Z,1.13
2024-03-16T05:35:07.917Z,1.10
2024-03-16T05:37:35.865Z,1.10
2024-03-16T05:40:04.453Z,1.00
2024-03-16T05:42:35.188Z,0.93
2024-03-16T05:45:04.555Z,1.35
2024-03-16T05:47:32.597Z,1.02
2024-03-16T05:50:00.949Z,1.20
2024-03-16T05:52:28.970Z,1.15
2024-03-16T05:54:57.074Z,1.42
2024-03-16T05:57:25.952Z,0.85
2024-03-16T05:59:54.095Z,0.90
2024-03-16T06:02:23.207Z,1.08
2024-03-16T06:04:51.227Z,0.93
2024-03-16T06:07:20.689Z,0.98
2024-03-16T06:09:48.836Z,1.00
2024-03-16T06:12:17.113Z,0.80
2024-03-16T06:14:45.076Z,0.90
2024-03-16T06:17:13.097Z,0.88
2024-03-16T06:19:41.070Z,0.80
2024-03-16T06:22:09.738Z,0.65
2024-03-16T06:24:37.853Z,0.85
2024-03-16T06:27:06.844Z,0.95
2024-03-16T06:29:34.858Z,1.00
2024-03-16T06:32:07.442Z,0.70
2024-03-16T06:34:35.459Z,0.98
2024-03-16T06:37:04.409Z,1.05
2024-03-16T06:39:32.550Z,1.10
2024-03-16T06:42:00.514Z,0.80
2024-03-16T06:44:28.507Z,1.10
2024-03-16T06:46:56.489Z,0.88
2024-03-16T06:49:24.591Z,0.60
2024-03-16T06:51:52.574Z,0.70
2024-03-16T06:54:20.589Z,0.82
2024-03-16T06:56:48.540Z,0.80
2024-03-16T06:59:16.811Z,1.02
2024-03-16T07:01:45.059Z,0.70
2024-03-16T07:04:13.810Z,0.80
2024-03-16T07:06:41.836Z,0.80
2024-03-16T07:09:12.204Z,0.90
2024-03-16T07:11:40.632Z,0.95
2024-03-16T07:14:09.329Z,1.13
2024-03-16T07:16:37.335Z,0.93
2024-03-16T07:19:05.468Z,1.02
2024-03-16T07:21:33.522Z,0.95
2024-03-16T07:24:02.091Z,0.85
2024-03-16T07:26:30.204Z,0.85
2024-03-16T07:28:58.487Z,0.60
2024-03-16T07:31:26.606Z,0.65
2024-03-16T07:33:54.775Z,1.13
2024-03-16T07:36:23.640Z,0.95
2024-03-16T07:38:51.576Z,0.80
2024-03-16T07:41:20.188Z,1.27
2024-03-16T07:43:48.472Z,1.02
2024-03-16T07:46:16.606Z,1.40
2024-03-16T07:48:44.614Z,1.35
2024-03-16T07:51:15.183Z,1.00
2024-03-16T07:53:43.419Z,0.95
2024-03-16T07:56:11.346Z,1.30
2024-03-16T07:58:40.021Z,1.02
2024-03-16T08:01:10.390Z,0.80
2024-03-16T08:03:38.793Z,0.88
2024-03-16T08:06:08.707Z,1.00
2024-03-16T08:08:37.166Z,1.10
2024-03-16T08:11:06.416Z,1.55
2024-03-16T08:13:35.427Z,1.55
2024-03-16T08:16:03.770Z,1.20
2024-03-16T08:18:31.783Z,1.30
2024-03-16T08:20:59.807Z,1.40
2024-03-16T08:23:28.367Z,0.90
2024-03-16T08:25:56.383Z,1.00
2024-03-16T08:28:24.359Z,2.42
2024-03-16T08:30:52.403Z,1.45
2024-03-16T08:33:20.490Z,1.08
2024-03-16T08:35:48.549Z,1.42
2024-03-16T08:38:16.517Z,1.10
2024-03-16T08:40:44.517Z,1.25
2024-03-16T08:43:12.698Z,1.00
2024-03-16T08:45:40.804Z,1.10
2024-03-16T08:48:08.859Z,0.95
2024-03-16T08:50:37.056Z,0.90
2024-03-16T08:53:05.396Z,1.10
2024-03-16T08:55:34.105Z,1.45
2024-03-16T08:58:02.143Z,1.15
2024-03-16T09:00:30.974Z,1.60
2024-03-16T09:02:59.019Z,1.23
2024-03-16T09:05:27.090Z,0.90
2024-03-16T09:07:55.045Z,0.88
2024-03-16T09:10:23.064Z,0.90
2024-03-16T09:12:51.130Z,0.95
2024-03-16T09:15:20.711Z,0.90
2024-03-16T09:17:48.709Z,1.20
2024-03-16T09:20:16.661Z,0.95
2024-03-16T09:22:44.722Z,1.08
2024-03-16T09:25:12.891Z,2.15
2024-03-16T09:27:41.200Z,1.65
2024-03-16T09:30:12.243Z,1.02
2024-03-16T09:32:40.820Z,1.20
2024-03-16T09:35:11.484Z,1.10
2024-03-16T09:37:39.727Z,1.20
2024-03-16T09:40:11.540Z,1.15
2024-03-16T09:42:40.116Z,1.40
